Big Bear Station Historical Data
Daily Summary for August 30, 2017 Units:  English    Metric   Both
« Previous Day
Next Day »
Daily Weekly Monthly Yearly Custom
  High: Low: Average:
Temperature: 84.6 °F 52.3 °F 65.3 °F
Dew Point: 60.9 °F 46.5 °F 51.3 °F
Humidity: 91 % 33 % 64 %
Wind Speed: 4.7 mph 0.0 mph 0.6 mph
Wind Gust: -999.0 mph - -
Wind:- - WSW
Pressure: 30.29 in 23.58 in -
Precipitation: 0.19 in    
Historical Graphs
 
 
Tabular Data for August 30, 2017
Time Temperature Dew Point Pressure Wind Wind Speed Wind Gust Humidity Rainfall Rate (Hourly)
00:05 57.2 °F 49.3 °F 30.29 in Calm   -999.0 mph 75 % 0 in
00:20 56.8 °F 50.0 °F 30.29 in Calm   -999.0 mph 78 % 0 in
00:35 56.3 °F 49.5 °F 30.29 in Calm   -999.0 mph 78 % 0 in
00:51 56.3 °F 49.5 °F 30.29 in Calm   -999.0 mph 78 % 0 in
01:06 55.8 °F 49.4 °F 30.29 in Calm   -999.0 mph 79 % 0 in
01:21 55.6 °F 49.5 °F 30.28 in Calm   -999.0 mph 80 % 0 in
01:36 55.2 °F 48.5 °F 30.28 in Calm   -999.0 mph 78 % 0 in
01:51 55.0 °F 48.3 °F 30.28 in Calm   -999.0 mph 78 % 0 in
02:07 54.9 °F 48.5 °F 30.28 in Calm   -999.0 mph 79 % 0 in
02:22 54.5 °F 48.8 °F 30.28 in Calm   -999.0 mph 81 % 0 in
02:37 54.5 °F 48.8 °F 30.28 in Calm   -999.0 mph 81 % 0 in
02:52 54.1 °F 48.7 °F 30.27 in Calm   -999.0 mph 82 % 0 in
03:07 54.0 °F 49.3 °F 30.27 in Calm   -999.0 mph 84 % 0 in
03:23 54.0 °F 49.9 °F 30.27 in Calm   -999.0 mph 86 % 0 in
03:38 53.8 °F 49.7 °F 30.27 in Calm   -999.0 mph 86 % 0 in
03:53 53.6 °F 49.5 °F 30.27 in Calm   -999.0 mph 86 % 0 in
04:08 53.4 °F 48.7 °F 30.27 in Calm   -999.0 mph 84 % 0 in
04:24 53.4 °F 48.4 °F 30.27 in Calm   -999.0 mph 83 % 0 in
04:39 53.2 °F 48.2 °F 30.26 in Calm   -999.0 mph 83 % 0 in
04:54 53.1 °F 48.4 °F 30.26 in Calm   -999.0 mph 84 % 0 in
05:09 52.9 °F 48.2 °F 30.26 in Calm   -999.0 mph 84 % 0 in
05:24 52.7 °F 48.3 °F 30.27 in Calm   -999.0 mph 85 % 0 in
05:40 52.9 °F 48.8 °F 30.27 in Calm   -999.0 mph 86 % 0 in
05:55 52.7 °F 48.6 °F 30.27 in Calm   -999.0 mph 86 % 0 in
06:10 52.5 °F 48.7 °F 30.27 in Calm   -999.0 mph 87 % 0 in
06:25 52.7 °F 49.2 °F 30.27 in Calm   -999.0 mph 88 % 0 in
06:40 52.3 °F 48.5 °F 30.28 in Calm   -999.0 mph 87 % 0 in
06:56 52.3 °F 48.2 °F 30.28 in Calm   -999.0 mph 86 % 0 in
07:11 52.9 °F 48.8 °F 30.28 in Calm   -999.0 mph 86 % 0 in
07:26 52.9 °F 48.8 °F 30.29 in Calm   -999.0 mph 86 % 0 in
07:41 53.4 °F 49.6 °F 30.29 in Calm   -999.0 mph 87 % 0 in
07:56 54.7 °F 50.9 °F 30.29 in Calm   -999.0 mph 87 % 0 in
08:12 54.9 °F 51.1 °F 30.29 in Calm   -999.0 mph 87 % 0 in
08:27 56.8 °F 52.3 °F 30.29 in Calm   -999.0 mph 85 % 0 in
08:42 59.2 °F 52.7 °F 30.29 in Calm   -999.0 mph 79 % 0 in
08:57 61.3 °F 53.7 °F 30.29 in Calm   -999.0 mph 76 % 0 in
09:12 63.3 °F 53.4 °F 30.29 in Calm   -999.0 mph 70 % 0 in
09:28 65.1 °F 51.3 °F 30.29 in Calm   -999.0 mph 61 % 0 in
09:43 67.5 °F 52.7 °F 30.29 in Calm   -999.0 mph 59 % 0 in
09:58 69.6 °F 50.7 °F 30.29 in Calm   -999.0 mph 51 % 0 in
10:13 71.4 °F 49.5 °F 30.29 in Calm   -999.0 mph 46 % 0 in
10:28 76.1 °F 50.7 °F 30.29 in Calm   -999.0 mph 41 % 0 in
10:44 76.8 °F 47.8 °F 30.29 in ESE 2.2 mph -999.0 mph 36 % 0 in
10:59 77.9 °F 46.5 °F 30.29 in South 1.7 mph -999.0 mph 33 % 0 in
11:14 78.8 °F 47.3 °F 30.29 in Calm   -999.0 mph 33 % 0 in
11:29 77.7 °F 53.4 °F 30.29 in Calm   -999.0 mph 43 % 0 in
11:45 72.0 °F 58.7 °F 30.29 in SE 2.7 mph -999.0 mph 63 % 0 in
12:00 68.0 °F 60.9 °F 30.29 in Calm   -999.0 mph 78 % 0 in
12:15 71.6 °F 57.9 °F 30.28 in NNW 3.7 mph -999.0 mph 62 % 0 in
12:30 74.5 °F 53.5 °F 30.28 in WNW 1.7 mph -999.0 mph 48 % 0 in
12:45 74.7 °F 54.8 °F 30.28 in North 2.2 mph -999.0 mph 50 % 0 in
13:01 74.5 °F 51.2 °F 30.28 in Calm   -999.0 mph 44 % 0 in
13:16 75.2 °F 51.2 °F 30.28 in Calm   -999.0 mph 43 % 0 in
13:31 72.9 °F 56.3 °F 30.28 in Calm   -999.0 mph 56 % 0 in
13:46 73.6 °F 53.3 °F 30.28 in Calm   -999.0 mph 49 % 0 in
14:01 73.8 °F 54.5 °F 30.27 in Calm   -999.0 mph 51 % 0 in
14:17 71.4 °F 55.9 °F 30.27 in Calm   -999.0 mph 58 % 0 in
14:32 72.9 °F 52.6 °F 30.26 in NW 2.7 mph -999.0 mph 49 % 0 in
14:47 77.9 °F 51.6 °F 30.26 in WNW 1.7 mph -999.0 mph 40 % 0 in
15:03 79.3 °F 50.0 °F 30.25 in Calm   -999.0 mph 36 % 0 in
15:18 80.1 °F 50.0 °F 30.25 in East 2.2 mph -999.0 mph 35 % 0 in
15:33 82.2 °F 51.1 °F 30.24 in NNW 3.7 mph -999.0 mph 34 % 0 in
15:48 80.1 °F 53.6 °F 30.24 in WNW 2.7 mph -999.0 mph 40 % 0 in
16:04 78.3 °F 52.7 °F 30.24 in Calm   -999.0 mph 41 % 0 in
16:19 79.5 °F 51.7 °F 30.24 in NNW 4.7 mph -999.0 mph 38 % 0 in
16:34 77.7 °F 55.3 °F 30.24 in NW 3.2 mph -999.0 mph 46 % 0 in
16:50 77.5 °F 53.9 °F 30.24 in NNW 1.7 mph -999.0 mph 44 % 0 in
17:05 77.9 °F 56.1 °F 30.23 in Calm   -999.0 mph 47 % 0 in
17:20 77.9 °F 55.5 °F 30.23 in NW 1.1 mph -999.0 mph 46 % 0 in
17:36 79.7 °F 55.2 °F 30.23 in NNW 2.2 mph -999.0 mph 43 % 0 in
17:51 83.1 °F 54.9 °F 30.23 in Calm   -999.0 mph 38 % 0 in
18:06 84.6 °F 53.2 °F 30.23 in Calm   -999.0 mph 34 % 0 in
18:21 82.2 °F 57.5 °F 30.23 in Calm   -999.0 mph 43 % 0 in
18:37 77.4 °F 53.2 °F 30.23 in Calm   -999.0 mph 43 % 0 in
18:52 74.1 °F 52.0 °F 30.23 in Calm   -999.0 mph 46 % 0 in
19:07 72.9 °F 49.7 °F 30.24 in Calm   -999.0 mph 44 % 0 in
19:22 70.5 °F 50.4 °F 30.24 in SSW 1.7 mph -999.0 mph 49 % 0 in
19:38 69.4 °F 50.0 °F 30.24 in Calm   -999.0 mph 50 % 0 in
19:53 67.8 °F 50.6 °F 30.24 in Calm   -999.0 mph 54 % 0 in
20:08 66.9 °F 50.2 °F 30.25 in SSW 1.7 mph -999.0 mph 55 % 0 in
20:23 66.2 °F 50.5 °F 23.58 in Calm   -999.0 mph 57 % 0 in
20:38 65.1 °F 50.0 °F 30.26 in South 2.2 mph -999.0 mph 58 % 0 in
20:54 64.6 °F 50.0 °F 30.26 in Calm   -999.0 mph 59 % 0 in
21:09 64.6 °F 50.8 °F 30.26 in Calm   -999.0 mph 61 % 0 in
21:24 64.0 °F 50.7 °F 30.26 in Calm   -999.0 mph 62 % 0 in
21:39 63.7 °F 50.4 °F 30.26 in Calm   -999.0 mph 62 % 0 in
21:54 63.1 °F 51.1 °F 30.27 in South 2.7 mph -999.0 mph 65 % 0 in
22:10 63.3 °F 50.5 °F 30.27 in SE 3.2 mph -999.0 mph 63 % 0 in
22:25 63.5 °F 49.8 °F 30.28 in Calm   -999.0 mph 61 % 0 in
22:40 64.2 °F 49.6 °F 30.28 in Calm   -999.0 mph 59 % 0 in
22:56 64.2 °F 49.6 °F 30.28 in Calm   -999.0 mph 59 % 0 in
23:11 63.1 °F 52.8 °F 30.28 in Calm   -999.0 mph 69 % 0 in
23:27 58.5 °F 54.6 °F 30.29 in SSW 2.7 mph -999.0 mph 87 % 0 in
23:42 58.3 °F 55.1 °F 30.29 in North 2.7 mph -999.0 mph 89 % 0 in
23:57 57.9 °F 55.3 °F 30.28 in South 2.2 mph -999.0 mph 91 % 0 in
Big Bear CA Weather
Compliments of Weather Underground - 1.5 mb